createdAt,value
2022-10-19T00:01:57.139Z,56.67
2022-10-19T00:04:27.387Z,56.63
2022-10-19T00:06:58.629Z,58.20
2022-10-19T00:09:29.395Z,56.13
2022-10-19T00:11:59.746Z,57.20
2022-10-19T00:14:30.300Z,55.95
2022-10-19T00:17:00.859Z,54.63
2022-10-19T00:19:31.631Z,53.67
2022-10-19T00:22:01.784Z,59.15
2022-10-19T00:24:31.844Z,49.65
2022-10-19T00:27:01.937Z,46.63
2022-10-19T00:29:32.026Z,45.40
2022-10-19T00:32:02.374Z,48.10
2022-10-19T00:34:33.014Z,46.50
2022-10-19T00:37:03.578Z,48.47
2022-10-19T00:39:33.629Z,42.80
2022-10-19T00:42:04.090Z,45.72
2022-10-19T00:44:53.889Z,44.58
2022-10-19T00:47:26.334Z,44.25
2022-10-19T00:49:57.359Z,44.53
2022-10-19T00:52:28.308Z,44.35
2022-10-19T00:54:59.560Z,46.72
2022-10-19T00:57:32.072Z,43.75
2022-10-19T01:00:03.725Z,43.13
2022-10-19T01:02:34.716Z,42.28
2022-10-19T01:05:06.510Z,41.03
2022-10-19T01:07:37.951Z,38.15
2022-10-19T01:10:09.149Z,39.05
2022-10-19T01:12:54.141Z,37.53
2022-10-19T01:15:34.172Z,37.05
2022-10-19T01:18:08.687Z,39.17
2022-10-19T01:20:59.302Z,37.45
2022-10-19T01:23:49.810Z,37.38
2022-10-19T01:26:40.102Z,36.72
2022-10-19T01:29:16.984Z,35.78
2022-10-19T01:31:51.409Z,35.63
2022-10-19T01:34:32.718Z,35.85
2022-10-19T01:37:09.738Z,34.85
2022-10-19T01:40:00.354Z,34.53
2022-10-19T01:42:35.600Z,38.13
2022-10-19T01:45:25.814Z,35.53
2022-10-19T01:48:16.190Z,33.15
2022-10-19T01:50:52.621Z,34.67
2022-10-19T01:53:24.251Z,34.75
2022-10-19T01:55:56.022Z,33.33
2022-10-19T01:58:30.551Z,32.70
2022-10-19T02:01:03.495Z,34.65
2022-10-19T02:03:34.744Z,33.58
2022-10-19T02:06:10.280Z,33.92
2022-10-19T02:08:44.732Z,32.83
2022-10-19T02:11:16.192Z,33.50
2022-10-19T02:13:48.224Z,37.33
2022-10-19T02:16:22.296Z,31.85
2022-10-19T02:18:54.639Z,32.92
2022-10-19T02:21:26.594Z,34.38
2022-10-19T02:23:57.586Z,33.05
2022-10-19T02:26:28.768Z,32.78
2022-10-19T02:29:01.429Z,32.60
2022-10-19T02:31:33.703Z,33.08
2022-10-19T02:34:05.238Z,32.50
2022-10-19T02:36:36.620Z,32.80
2022-10-19T02:39:08.964Z,33.47
2022-10-19T02:41:42.980Z,33.63
2022-10-19T02:44:23.768Z,32.50
2022-10-19T02:46:58.608Z,32.30
2022-10-19T02:49:30.603Z,31.52
2022-10-19T02:52:03.673Z,32.47
2022-10-19T02:54:35.148Z,33.28
2022-10-19T02:57:20.129Z,34.08
2022-10-19T02:59:51.744Z,31.60
2022-10-19T03:02:23.941Z,30.95
2022-10-19T03:04:55.293Z,33.92
2022-10-19T03:07:26.348Z,31.08
2022-10-19T03:09:57.861Z,32.88
2022-10-19T03:12:28.979Z,30.50
2022-10-19T03:15:00.144Z,30.83
2022-10-19T03:17:31.409Z,30.50
2022-10-19T03:20:02.627Z,32.60
2022-10-19T03:22:33.873Z,32.08
2022-10-19T03:25:05.053Z,40.30
2022-10-19T03:27:36.937Z,32.20
2022-10-19T03:30:08.704Z,32.63
2022-10-19T03:32:40.532Z,32.40
2022-10-19T03:35:11.870Z,31.50
2022-10-19T03:37:43.040Z,31.85
2022-10-19T03:40:16.690Z,32.13
2022-10-19T03:42:48.506Z,31.17
2022-10-19T03:45:20.428Z,31.58
2022-10-19T03:47:54.938Z,32.15
2022-10-19T03:50:25.964Z,30.77
2022-10-19T03:52:58.571Z,32.53
2022-10-19T03:55:31.078Z,31.98
2022-10-19T03:58:02.954Z,31.13
2022-10-19T04:00:34.400Z,31.50
2022-10-19T04:03:05.537Z,32.42
2022-10-19T04:05:37.044Z,31.40
2022-10-19T04:08:09.929Z,32.17
2022-10-19T04:10:41.425Z,32.45
2022-10-19T04:13:12.908Z,30.58
2022-10-19T04:15:44.187Z,31.77
2022-10-19T04:18:15.902Z,31.63
2022-10-19T04:20:47.446Z,30.25
2022-10-19T04:23:18.965Z,31.70
2022-10-19T04:25:50.176Z,32.15
2022-10-19T04:28:21.713Z,31.20
2022-10-19T04:30:53.294Z,31.50
2022-10-19T04:33:24.750Z,31.17
2022-10-19T04:36:01.415Z,32.55
2022-10-19T04:38:33.907Z,31.92
2022-10-19T04:41:06.391Z,30.10
2022-10-19T04:43:38.586Z,33.97
2022-10-19T04:46:15.481Z,30.77
2022-10-19T04:48:47.148Z,30.48
2022-10-19T04:51:19.356Z,28.98
2022-10-19T04:53:53.364Z,30.02
2022-10-19T04:56:32.655Z,29.77
2022-10-19T04:59:04.212Z,28.60
2022-10-19T05:01:35.835Z,29.75
2022-10-19T05:04:07.676Z,30.00
2022-10-19T05:06:38.892Z,29.67
2022-10-19T05:09:10.773Z,28.83
2022-10-19T05:11:42.055Z,29.35
2022-10-19T05:14:13.536Z,27.52
2022-10-19T05:16:45.641Z,28.20
2022-10-19T05:19:17.532Z,28.33
2022-10-19T05:21:48.997Z,28.70
2022-10-19T05:24:24.870Z,27.77
2022-10-19T05:26:56.775Z,27.15
2022-10-19T05:29:29.787Z,27.17
2022-10-19T05:32:02.935Z,27.88
2022-10-19T05:34:38.387Z,27.83
2022-10-19T05:37:09.648Z,27.65
2022-10-19T05:39:42.750Z,27.38
2022-10-19T05:42:16.041Z,28.35
2022-10-19T05:44:47.783Z,27.67
2022-10-19T05:47:20.020Z,31.42
2022-10-19T05:49:52.047Z,28.33
2022-10-19T05:52:23.859Z,28.63
2022-10-19T05:55:01.764Z,29.60
2022-10-19T05:57:36.927Z,27.45
2022-10-19T06:00:09.143Z,26.65
2022-10-19T06:02:44.134Z,26.02
2022-10-19T06:05:15.500Z,27.67
2022-10-19T06:07:47.274Z,26.77
2022-10-19T06:10:27.127Z,28.08
2022-10-19T06:12:59.350Z,26.90
2022-10-19T06:15:30.901Z,26.52
2022-10-19T06:18:02.725Z,27.00
2022-10-19T06:20:34.272Z,28.63
2022-10-19T06:23:07.202Z,26.92
2022-10-19T06:25:39.422Z,26.83
2022-10-19T06:28:11.088Z,25.88
2022-10-19T06:30:44.756Z,26.63
2022-10-19T06:33:18.989Z,27.77
2022-10-19T06:35:50.422Z,26.15
2022-10-19T06:38:22.111Z,27.75
2022-10-19T06:40:56.700Z,27.77
2022-10-19T06:43:32.946Z,26.67
2022-10-19T06:46:10.186Z,27.00
2022-10-19T06:48:47.188Z,26.42
2022-10-19T06:51:24.441Z,26.25
2022-10-19T06:53:57.226Z,26.95
2022-10-19T06:56:29.054Z,26.75
2022-10-19T06:59:06.685Z,26.85
2022-10-19T07:01:38.044Z,27.33
2022-10-19T07:04:10.493Z,25.58
2022-10-19T07:06:41.856Z,26.23
2022-10-19T07:09:15.291Z,26.90
2022-10-19T07:11:48.342Z,25.77
2022-10-19T07:14:20.265Z,25.70
2022-10-19T07:16:59.474Z,25.63
2022-10-19T07:19:31.156Z,25.45
2022-10-19T07:22:02.920Z,26.13
2022-10-19T07:24:38.732Z,25.02
2022-10-19T07:27:16.136Z,30.77
2022-10-19T07:29:47.646Z,25.60
2022-10-19T07:32:19.630Z,26.05
2022-10-19T07:34:51.565Z,25.48
2022-10-19T07:37:23.335Z,25.65
2022-10-19T07:39:54.584Z,25.33
2022-10-19T07:42:27.769Z,26.15
2022-10-19T07:45:00.107Z,25.08
2022-10-19T07:47:35.189Z,25.80
2022-10-19T07:50:07.189Z,25.63
2022-10-19T07:52:39.483Z,27.17
2022-10-19T07:55:10.812Z,26.42
2022-10-19T07:57:47.089Z,25.35
2022-10-19T08:00:20.525Z,35.22
2022-10-19T08:02:59.766Z,25.38
2022-10-19T08:05:44.966Z,25.83
2022-10-19T08:08:21.331Z,26.05
2022-10-19T08:10:58.875Z,30.95
2022-10-19T08:13:30.571Z,25.65
2022-10-19T08:16:02.658Z,26.45
2022-10-19T08:18:35.499Z,26.48
2022-10-19T08:21:07.214Z,25.33
2022-10-19T08:23:39.693Z,26.00
2022-10-19T08:26:16.430Z,26.60
2022-10-19T08:28:48.095Z,28.02
2022-10-19T08:31:21.912Z,26.23
2022-10-19T08:33:53.951Z,26.92
2022-10-19T08:36:26.648Z,25.88
2022-10-19T08:39:02.070Z,26.63
2022-10-19T08:41:53.232Z,25.63
2022-10-19T08:44:31.755Z,26.70
2022-10-19T08:47:32.974Z,24.83
2022-10-19T08:50:18.629Z,25.85
2022-10-19T08:53:10.041Z,26.90
2022-10-19T08:56:05.039Z,27.13
2022-10-19T08:58:51.937Z,26.00
2022-10-19T09:01:39.857Z,26.20
2022-10-19T09:04:33.505Z,26.30
2022-10-19T09:07:35.674Z,27.45
2022-10-19T09:10:18.786Z,26.60
2022-10-19T09:13:09.886Z,28.23
2022-10-19T09:15:46.794Z,27.33
2022-10-19T09:18:30.612Z,27.80
2022-10-19T09:21:11.833Z,28.27
2022-10-19T09:23:56.843Z,29.58
2022-10-19T09:26:40.418Z,27.15
2022-10-19T09:29:20.154Z,28.90
2022-10-19T09:32:14.585Z,28.58
2022-10-19T09:34:51.634Z,29.45
2022-10-19T09:40:12.356Z,30.58
2022-10-19T09:42:43.993Z,29.20
2022-10-19T09:45:47.357Z,29.90
2022-10-19T09:48:30.872Z,29.85
2022-10-19T09:51:04.927Z,32.13
2022-10-19T09:53:36.838Z,31.52
2022-10-19T09:56:10.932Z,31.75
2022-10-19T09:58:50.437Z,31.98
2022-10-19T10:01:44.068Z,32.03
2022-10-19T10:04:19.967Z,32.53
2022-10-19T10:06:51.534Z,32.65
2022-10-19T10:09:25.560Z,32.58
2022-10-19T10:11:57.603Z,33.55
2022-10-19T10:14:46.807Z,33.35
2022-10-19T10:17:25.850Z,31.65
2022-10-19T10:20:09.035Z,32.85
2022-10-19T10:22:40.311Z,33.55
2022-10-19T10:25:21.518Z,32.35
2022-10-19T10:28:00.726Z,33.58
2022-10-19T10:30:38.099Z,35.30
2022-10-19T10:33:21.110Z,37.25
2022-10-19T10:36:00.308Z,38.50
2022-10-19T10:38:34.656Z,40.38
2022-10-19T10:41:14.378Z,40.80
2022-10-19T10:44:08.240Z,40.90
2022-10-19T10:46:43.921Z,38.95
2022-10-19T10:49:34.163Z,40.00
2022-10-19T10:52:10.785Z,40.13
2022-10-19T10:54:41.987Z,39.10
2022-10-19T10:57:18.303Z,36.35
2022-10-19T10:59:56.583Z,39.67
2022-10-19T11:02:48.225Z,37.88
2022-10-19T11:05:38.516Z,38.20
2022-10-19T11:08:24.153Z,38.28
2022-10-19T11:11:07.939Z,41.33
2022-10-19T11:13:44.950Z,40.65
2022-10-19T11:16:17.966Z,38.50
2022-10-19T11:18:55.547Z,38.28
2022-10-19T11:21:44.676Z,38.30
2022-10-19T11:24:36.193Z,39.55
2022-10-19T11:27:26.576Z,43.97
2022-10-19T11:30:17.306Z,45.72
2022-10-19T11:33:07.759Z,47.95
2022-10-19T11:35:57.176Z,48.05
2022-10-19T11:38:41.392Z,51.08
2022-10-19T11:41:32.102Z,51.58
2022-10-19T11:44:22.459Z,52.40
2022-10-19T11:47:02.320Z,52.83
2022-10-19T11:49:52.684Z,51.95
2022-10-19T11:52:47.705Z,54.05
2022-10-19T11:55:38.066Z,55.28
2022-10-19T11:58:33.713Z,55.90
2022-10-19T12:01:25.016Z,57.45
2022-10-19T12:04:15.321Z,58.53
2022-10-19T12:07:05.702Z,60.28
2022-10-19T12:09:50.118Z,65.30
2022-10-19T12:12:26.700Z,75.30
2022-10-19T12:15:02.409Z,89.65
2022-10-19T12:17:35.836Z,102.38
2022-10-19T12:20:19.831Z,92.55
2022-10-19T12:22:51.893Z,86.05
2022-10-19T12:25:24.054Z,82.22
2022-10-19T12:27:55.404Z,84.50
2022-10-19T12:30:27.310Z,77.85
2022-10-19T12:33:04.308Z,77.05
2022-10-19T12:35:54.705Z,72.43
2022-10-19T12:38:31.106Z,71.57
2022-10-19T12:41:21.501Z,70.50
2022-10-19T12:44:12.370Z,68.25
2022-10-19T12:46:51.734Z,71.13
2022-10-19T12:49:44.189Z,67.68
2022-10-19T12:52:16.769Z,58.38
2022-10-19T12:54:49.121Z,56.72
2022-10-19T12:57:39.960Z,54.40
2022-10-19T13:00:30.579Z,61.22
2022-10-19T13:03:10.674Z,60.50
2022-10-19T13:05:42.014Z,60.75
2022-10-19T13:08:27.623Z,66.50
2022-10-19T13:11:08.873Z,58.63
2022-10-19T13:13:59.353Z,65.05
2022-10-19T13:16:42.410Z,63.42
2022-10-19T13:19:31.653Z,62.28
2022-10-19T13:22:22.901Z,58.45
2022-10-19T13:25:13.688Z,58.67
2022-10-19T13:27:45.036Z,57.33
2022-10-19T13:30:36.780Z,131.43
2022-10-19T13:33:27.532Z,73.45
2022-10-19T13:36:18.928Z,62.17
2022-10-19T13:39:10.242Z,61.60
2022-10-19T13:41:46.576Z,62.05
2022-10-19T13:44:26.747Z,58.75
2022-10-19T13:47:18.273Z,64.75
2022-10-19T13:50:09.021Z,60.92
2022-10-19T13:52:53.788Z,61.03
2022-10-19T13:55:31.631Z,59.47
2022-10-19T13:58:22.356Z,58.95
2022-10-19T14:01:16.121Z,58.65
2022-10-19T14:04:00.901Z,58.50
2022-10-19T14:06:51.671Z,57.00
2022-10-19T14:09:37.978Z,55.58
2022-10-19T14:12:12.961Z,56.58
2022-10-19T14:14:46.008Z,54.80
2022-10-19T14:19:57.148Z,55.33
2022-10-19T14:22:36.004Z,55.20
2022-10-19T14:25:26.499Z,55.10
2022-10-19T14:28:01.806Z,52.20
2022-10-19T14:30:37.355Z,76.13
2022-10-19T14:33:13.360Z,57.13
2022-10-19T14:35:46.588Z,55.20
2022-10-19T14:38:21.986Z,56.75
2022-10-19T14:40:53.397Z,52.83
2022-10-19T14:43:27.714Z,54.30
2022-10-19T14:46:18.312Z,278.30
2022-10-19T14:48:51.264Z,90.15
2022-10-19T14:51:32.809Z,56.28
2022-10-19T14:54:09.832Z,57.17
2022-10-19T14:57:00.558Z,68.95
2022-10-19T14:59:51.439Z,52.90
2022-10-19T15:02:33.228Z,52.38
2022-10-19T15:05:06.141Z,52.35
2022-10-19T15:07:40.686Z,54.00
2022-10-19T15:10:19.422Z,51.83
2022-10-19T15:12:52.960Z,52.08
2022-10-19T15:15:43.710Z,52.78
2022-10-19T15:18:43.577Z,70.60
2022-10-19T15:21:21.376Z,64.88
2022-10-19T15:23:53.528Z,53.05
2022-10-19T15:26:32.415Z,50.92
2022-10-19T15:29:21.968Z,51.13
2022-10-19T15:31:58.083Z,48.20
2022-10-19T15:34:32.057Z,49.63
2022-10-19T15:37:05.656Z,50.20
2022-10-19T15:39:43.310Z,49.50
2022-10-19T15:42:28.137Z,49.22
2022-10-19T15:44:59.347Z,49.97
2022-10-19T15:47:32.139Z,48.65
2022-10-19T15:50:04.624Z,47.75
2022-10-19T15:52:36.914Z,45.30
2022-10-19T15:55:08.285Z,45.42
2022-10-19T15:57:41.127Z,48.28
2022-10-19T16:00:15.188Z,45.35
2022-10-19T16:02:46.568Z,47.47
2022-10-19T16:05:18.539Z,45.45
2022-10-19T16:07:51.072Z,43.55
2022-10-19T16:10:24.901Z,46.33
2022-10-19T16:12:56.372Z,44.58
2022-10-19T16:15:28.316Z,45.67
2022-10-19T16:18:01.150Z,44.70
2022-10-19T16:20:32.545Z,45.10
2022-10-19T16:23:05.010Z,46.08
2022-10-19T16:25:35.963Z,46.85
2022-10-19T16:28:07.506Z,46.78
2022-10-19T16:30:38.735Z,43.40
2022-10-19T16:33:09.882Z,46.88
2022-10-19T16:35:41.683Z,44.28
2022-10-19T16:38:13.724Z,46.75
2022-10-19T16:40:45.160Z,46.08
2022-10-19T16:43:16.411Z,44.38
2022-10-19T16:45:50.487Z,44.90
2022-10-19T16:48:24.187Z,44.75
2022-10-19T16:51:16.190Z,45.17
2022-10-19T16:53:47.239Z,45.20
2022-10-19T16:56:18.264Z,43.35
2022-10-19T16:58:49.742Z,41.75
2022-10-19T17:01:22.568Z,41.85
2022-10-19T17:03:54.217Z,43.13
2022-10-19T17:06:26.469Z,42.15
2022-10-19T17:11:55.374Z,43.17
2022-10-19T17:14:26.944Z,48.45
2022-10-19T17:16:58.550Z,50.17
2022-10-19T17:19:30.366Z,47.88
2022-10-19T17:22:03.457Z,48.75
2022-10-19T17:24:34.551Z,44.67
2022-10-19T17:27:05.894Z,43.85
2022-10-19T17:29:37.186Z,45.10
2022-10-19T17:32:08.719Z,46.05
2022-10-19T17:34:39.871Z,45.30
2022-10-19T17:37:11.150Z,46.17
2022-10-19T17:39:42.198Z,50.10
2022-10-19T17:42:13.554Z,47.38
2022-10-19T17:44:44.655Z,47.22
2022-10-19T17:47:15.720Z,45.85
2022-10-19T17:49:47.954Z,47.00
2022-10-19T17:52:19.119Z,48.42
2022-10-19T17:55:11.188Z,46.20
2022-10-19T17:57:42.153Z,46.15
2022-10-19T18:00:14.030Z,47.00
2022-10-19T18:02:47.565Z,47.38
2022-10-19T18:05:19.156Z,46.22
2022-10-19T18:07:51.029Z,48.15
2022-10-19T18:10:22.475Z,47.20
2022-10-19T18:12:53.907Z,49.03
2022-10-19T18:15:25.437Z,48.03
2022-10-19T18:17:56.995Z,48.60
2022-10-19T18:20:28.566Z,48.42
2022-10-19T18:22:59.607Z,47.08
2022-10-19T18:25:49.216Z,47.95
2022-10-19T18:28:21.795Z,46.05
2022-10-19T18:30:53.243Z,45.88
2022-10-19T18:33:27.151Z,47.88
2022-10-19T18:36:00.709Z,45.40
2022-10-19T18:38:32.111Z,46.58
2022-10-19T18:41:06.547Z,48.50
2022-10-19T18:43:37.651Z,49.13
2022-10-19T18:46:09.130Z,47.65
2022-10-19T18:48:40.984Z,48.45
2022-10-19T18:51:11.972Z,44.83
2022-10-19T18:53:43.060Z,47.03
2022-10-19T18:56:15.448Z,45.83
2022-10-19T18:58:47.023Z,45.88
2022-10-19T19:01:25.904Z,46.20
2022-10-19T19:03:58.406Z,46.90
2022-10-19T19:06:31.015Z,47.75
2022-10-19T19:09:02.981Z,45.90
2022-10-19T19:11:37.004Z,48.15
2022-10-19T19:14:10.134Z,46.53
2022-10-19T19:16:42.081Z,45.67
2022-10-19T19:19:14.324Z,45.70
2022-10-19T19:21:46.246Z,47.42
2022-10-19T19:24:18.466Z,47.10
2022-10-19T19:26:52.237Z,50.10
2022-10-19T19:29:24.463Z,48.80
2022-10-19T19:31:55.714Z,49.38
2022-10-19T19:34:27.251Z,51.22
2022-10-19T19:36:58.738Z,51.22
2022-10-19T19:39:29.912Z,50.50
2022-10-19T19:42:00.976Z,51.20
2022-10-19T19:44:32.231Z,47.90
2022-10-19T19:47:04.202Z,48.28
2022-10-19T19:49:35.328Z,46.45
2022-10-19T19:52:06.391Z,47.90
2022-10-19T19:54:37.845Z,45.30
2022-10-19T19:57:09.542Z,48.72
2022-10-19T19:59:40.643Z,49.53
2022-10-19T20:02:12.241Z,50.58
2022-10-19T20:04:43.680Z,49.42
2022-10-19T20:07:14.800Z,49.70
2022-10-19T20:09:45.590Z,51.25
2022-10-19T20:12:16.933Z,49.80
2022-10-19T20:14:48.007Z,49.15
2022-10-19T20:17:25.061Z,48.08
2022-10-19T20:19:56.426Z,47.97
2022-10-19T20:22:27.667Z,48.58
2022-10-19T20:24:59.319Z,47.75
2022-10-19T20:27:30.509Z,49.83
2022-10-19T20:30:01.541Z,48.58
2022-10-19T20:32:33.491Z,49.22
2022-10-19T20:35:06.208Z,50.10
2022-10-19T20:37:37.698Z,48.90
2022-10-19T20:40:09.104Z,49.15
2022-10-19T20:42:40.172Z,48.80
2022-10-19T20:45:12.291Z,48.85
2022-10-19T20:47:43.868Z,49.42
2022-10-19T20:50:17.019Z,45.70
2022-10-19T20:52:50.476Z,47.25
2022-10-19T20:55:23.590Z,47.40
2022-10-19T20:57:54.637Z,44.83
2022-10-19T21:00:25.722Z,44.92
2022-10-19T21:02:56.933Z,46.53
2022-10-19T21:05:28.354Z,47.83
2022-10-19T21:08:00.441Z,47.45
2022-10-19T21:10:32.392Z,48.58
2022-10-19T21:13:03.996Z,47.72
2022-10-19T21:15:35.093Z,45.08
2022-10-19T21:18:06.063Z,45.90
2022-10-19T21:20:37.090Z,47.72
2022-10-19T21:23:08.189Z,47.65
2022-10-19T21:25:39.264Z,49.90
2022-10-19T21:28:10.264Z,50.85
2022-10-19T21:30:41.937Z,50.70
2022-10-19T21:33:12.919Z,50.40
2022-10-19T21:35:44.405Z,51.72
2022-10-19T21:38:15.308Z,52.47
2022-10-19T21:40:46.770Z,51.80
2022-10-19T21:43:17.866Z,50.88
2022-10-19T21:45:48.865Z,49.20
2022-10-19T21:48:20.290Z,47.25
2022-10-19T21:50:52.126Z,50.85
2022-10-19T21:53:25.095Z,48.15
2022-10-19T21:55:57.191Z,51.50
2022-10-19T21:58:28.292Z,49.67
2022-10-19T22:01:06.352Z,49.30
2022-10-19T22:03:37.787Z,53.13
2022-10-19T22:06:09.564Z,49.42
2022-10-19T22:08:40.945Z,51.28
2022-10-19T22:11:13.682Z,49.33
2022-10-19T22:13:44.932Z,49.92
2022-10-19T22:16:20.561Z,49.75
2022-10-19T22:18:52.200Z,50.40
2022-10-19T22:21:24.742Z,51.90
2022-10-19T22:23:57.542Z,52.80
2022-10-19T22:26:30.376Z,53.67
2022-10-19T22:29:02.670Z,53.13
2022-10-19T22:31:34.554Z,51.85
2022-10-19T22:34:07.448Z,51.13
2022-10-19T22:36:38.810Z,51.97
2022-10-19T22:39:10.127Z,55.10
2022-10-19T22:41:41.423Z,52.20
2022-10-19T22:44:13.293Z,51.88
2022-10-19T22:46:44.602Z,53.40
2022-10-19T22:49:15.663Z,51.85
2022-10-19T22:51:47.112Z,53.15
2022-10-19T22:54:18.815Z,54.28
2022-10-19T22:56:50.745Z,55.08
2022-10-19T22:59:22.025Z,55.45
2022-10-19T23:01:53.515Z,54.40
2022-10-19T23:04:24.689Z,57.22
2022-10-19T23:06:56.594Z,60.58
2022-10-19T23:09:27.924Z,65.18
2022-10-19T23:11:58.899Z,53.17
2022-10-19T23:14:30.056Z,53.58
2022-10-19T23:17:01.894Z,60.67
2022-10-19T23:19:33.289Z,56.13
2022-10-19T23:22:04.545Z,58.25
2022-10-19T23:24:35.535Z,58.15
2022-10-19T23:27:06.729Z,55.67
2022-10-19T23:29:37.572Z,52.05
2022-10-19T23:32:08.310Z,53.60
2022-10-19T23:34:41.077Z,52.25
2022-10-19T23:37:14.369Z,52.13
2022-10-19T23:39:45.224Z,52.88
2022-10-19T23:42:16.040Z,52.53
2022-10-19T23:44:47.219Z,53.22
2022-10-19T23:47:18.122Z,55.58
2022-10-19T23:49:49.594Z,54.08
2022-10-19T23:52:20.149Z,50.58
2022-10-19T23:54:50.721Z,49.90
2022-10-19T23:57:21.284Z,50.47
2022-10-19T23:59:52.147Z,47.97
